sensor_id;sensor_type;location;lat;lon;timestamp;temperature;humidity
23744;DHT22;12052;53.478;10.182;2023-11-19T00:00:10;4.90;99.90
23744;DHT22;12052;53.478;10.182;2023-11-19T00:02:40;4.90;99.90
23744;DHT22;12052;53.478;10.182;2023-11-19T00:05:06;4.90;99.90
23744;DHT22;12052;53.478;10.182;2023-11-19T00:07:37;4.90;99.90
23744;DHT22;12052;53.478;10.182;2023-11-19T00:10:10;4.90;99.90
23744;DHT22;12052;53.478;10.182;2023-11-19T00:12:38;4.90;99.90
23744;DHT22;12052;53.478;10.182;2023-11-19T00:15:04;4.90;99.90
23744;DHT22;12052;53.478;10.182;2023-11-19T00:17:30;4.90;99.90
23744;DHT22;12052;53.478;10.182;2023-11-19T00:19:55;5.00;99.90
23744;DHT22;12052;53.478;10.182;2023-11-19T00:22:21;4.90;99.90
23744;DHT22;12052;53.478;10.182;2023-11-19T00:24:47;4.90;99.90
23744;DHT22;12052;53.478;10.182;2023-11-19T00:27:13;4.90;99.90
23744;DHT22;12052;53.478;10.182;2023-11-19T00:29:38;5.00;99.90
23744;DHT22;12052;53.478;10.182;2023-11-19T00:32:04;5.00;99.90
23744;DHT22;12052;53.478;10.182;2023-11-19T00:34:30;4.90;99.90
23744;DHT22;12052;53.478;10.182;2023-11-19T00:36:56;5.00;99.90
23744;DHT22;12052;53.478;10.182;2023-11-19T00:39:22;5.00;99.90
23744;DHT22;12052;53.478;10.182;2023-11-19T00:41:48;5.00;99.90
23744;DHT22;12052;53.478;10.182;2023-11-19T00:44:13;5.00;99.90
23744;DHT22;12052;53.478;10.182;2023-11-19T00:46:39;5.00;99.90
23744;DHT22;12052;53.478;10.182;2023-11-19T00:49:05;5.00;99.90
23744;DHT22;12052;53.478;10.182;2023-11-19T00:51:30;5.00;99.90
23744;DHT22;12052;53.478;10.182;2023-11-19T00:53:57;5.00;99.90
23744;DHT22;12052;53.478;10.182;2023-11-19T00:56:23;5.00;99.90
23744;DHT22;12052;53.478;10.182;2023-11-19T00:58:49;5.10;99.90
23744;DHT22;12052;53.478;10.182;2023-11-19T01:01:15;5.10;99.90
23744;DHT22;12052;53.478;10.182;2023-11-19T01:03:40;5.00;99.90
23744;DHT22;12052;53.478;10.182;2023-11-19T01:06:06;5.00;99.90
23744;DHT22;12052;53.478;10.182;2023-11-19T01:08:33;5.00;99.90
23744;DHT22;12052;53.478;10.182;2023-11-19T01:11:01;5.00;99.90
23744;DHT22;12052;53.478;10.182;2023-11-19T01:13:27;5.10;99.90
23744;DHT22;12052;53.478;10.182;2023-11-19T01:15:53;5.10;99.90
23744;DHT22;12052;53.478;10.182;2023-11-19T01:18:18;5.10;99.90
23744;DHT22;12052;53.478;10.182;2023-11-19T01:20:44;5.10;99.90
23744;DHT22;12052;53.478;10.182;2023-11-19T01:23:09;5.10;99.90
23744;DHT22;12052;53.478;10.182;2023-11-19T01:25:35;5.10;99.90
23744;DHT22;12052;53.478;10.182;2023-11-19T01:28:01;5.10;99.90
23744;DHT22;12052;53.478;10.182;2023-11-19T01:30:27;5.10;99.90
23744;DHT22;12052;53.478;10.182;2023-11-19T01:32:53;5.10;99.90
23744;DHT22;12052;53.478;10.182;2023-11-19T01:35:19;5.10;99.90
23744;DHT22;12052;53.478;10.182;2023-11-19T01:37:44;5.10;99.90
23744;DHT22;12052;53.478;10.182;2023-11-19T01:40:10;5.10;99.90
23744;DHT22;12052;53.478;10.182;2023-11-19T01:42:40;5.10;99.90
23744;DHT22;12052;53.478;10.182;2023-11-19T01:45:06;5.10;99.90
23744;DHT22;12052;53.478;10.182;2023-11-19T01:47:33;5.10;99.90
23744;DHT22;12052;53.478;10.182;2023-11-19T01:50:00;5.10;99.90
23744;DHT22;12052;53.478;10.182;2023-11-19T01:52:27;5.10;99.90
23744;DHT22;12052;53.478;10.182;2023-11-19T01:54:53;5.10;99.90
23744;DHT22;12052;53.478;10.182;2023-11-19T01:57:21;5.10;99.90
23744;DHT22;12052;53.478;10.182;2023-11-19T01:59:49;5.10;99.90
23744;DHT22;12052;53.478;10.182;2023-11-19T02:02:16;5.10;99.90
23744;DHT22;12052;53.478;10.182;2023-11-19T02:04:49;5.10;99.90
23744;DHT22;12052;53.478;10.182;2023-11-19T02:07:15;5.10;99.90
23744;DHT22;12052;53.478;10.182;2023-11-19T02:09:43;5.10;99.90
23744;DHT22;12052;53.478;10.182;2023-11-19T02:12:09;5.10;99.90
23744;DHT22;12052;53.478;10.182;2023-11-19T02:14:37;5.20;99.90
23744;DHT22;12052;53.478;10.182;2023-11-19T02:17:04;5.10;99.90
23744;DHT22;12052;53.478;10.182;2023-11-19T02:19:30;5.20;99.90
23744;DHT22;12052;53.478;10.182;2023-11-19T02:21:55;5.20;99.90
23744;DHT22;12052;53.478;10.182;2023-11-19T02:24:22;5.20;99.90
23744;DHT22;12052;53.478;10.182;2023-11-19T02:27:01;5.10;99.90
23744;DHT22;12052;53.478;10.182;2023-11-19T02:29:27;5.20;99.90
23744;DHT22;12052;53.478;10.182;2023-11-19T02:31:53;5.20;99.90
23744;DHT22;12052;53.478;10.182;2023-11-19T02:34:20;5.20;99.90
23744;DHT22;12052;53.478;10.182;2023-11-19T02:36:47;5.20;99.90
23744;DHT22;12052;53.478;10.182;2023-11-19T02:39:12;5.20;99.90
23744;DHT22;12052;53.478;10.182;2023-11-19T02:41:39;5.20;99.90
23744;DHT22;12052;53.478;10.182;2023-11-19T02:44:06;5.20;99.90
23744;DHT22;12052;53.478;10.182;2023-11-19T02:46:32;5.20;99.90
23744;DHT22;12052;53.478;10.182;2023-11-19T02:48:57;5.20;99.90
23744;DHT22;12052;53.478;10.182;2023-11-19T02:51:23;5.20;99.90
23744;DHT22;12052;53.478;10.182;2023-11-19T02:53:49;5.30;99.90
23744;DHT22;12052;53.478;10.182;2023-11-19T02:56:14;5.20;99.90
23744;DHT22;12052;53.478;10.182;2023-11-19T02:58:51;5.30;99.90
23744;DHT22;12052;53.478;10.182;2023-11-19T03:01:26;5.30;99.90
23744;DHT22;12052;53.478;10.182;2023-11-19T03:03:56;5.30;99.90
23744;DHT22;12052;53.478;10.182;2023-11-19T03:06:23;5.30;99.90
23744;DHT22;12052;53.478;10.182;2023-11-19T03:08:48;5.30;99.90
23744;DHT22;12052;53.478;10.182;2023-11-19T03:11:15;5.30;99.90
23744;DHT22;12052;53.478;10.182;2023-11-19T03:13:40;5.30;99.90
23744;DHT22;12052;53.478;10.182;2023-11-19T03:16:07;5.30;99.90
23744;DHT22;12052;53.478;10.182;2023-11-19T03:18:32;5.30;99.90
23744;DHT22;12052;53.478;10.182;2023-11-19T03:20:58;5.40;99.90
23744;DHT22;12052;53.478;10.182;2023-11-19T03:23:24;5.40;99.90
23744;DHT22;12052;53.478;10.182;2023-11-19T03:25:50;5.40;99.90
23744;DHT22;12052;53.478;10.182;2023-11-19T03:28:16;5.40;99.90
23744;DHT22;12052;53.478;10.182;2023-11-19T03:30:41;5.40;99.90
23744;DHT22;12052;53.478;10.182;2023-11-19T03:33:07;5.40;99.90
23744;DHT22;12052;53.478;10.182;2023-11-19T03:35:33;5.40;99.90
23744;DHT22;12052;53.478;10.182;2023-11-19T03:37:58;5.40;99.90
23744;DHT22;12052;53.478;10.182;2023-11-19T03:40:24;5.40;99.90
23744;DHT22;12052;53.478;10.182;2023-11-19T03:42:50;5.40;99.90
23744;DHT22;12052;53.478;10.182;2023-11-19T03:45:16;5.50;99.90
23744;DHT22;12052;53.478;10.182;2023-11-19T03:47:42;5.50;99.90
23744;DHT22;12052;53.478;10.182;2023-11-19T03:50:08;5.50;99.90
23744;DHT22;12052;53.478;10.182;2023-11-19T03:52:34;5.50;99.90
23744;DHT22;12052;53.478;10.182;2023-11-19T03:55:00;5.50;99.90
23744;DHT22;12052;53.478;10.182;2023-11-19T03:57:27;5.50;99.90
23744;DHT22;12052;53.478;10.182;2023-11-19T03:59:53;5.60;99.90
23744;DHT22;12052;53.478;10.182;2023-11-19T04:02:20;5.60;99.90
23744;DHT22;12052;53.478;10.182;2023-11-19T04:04:46;5.60;99.90
23744;DHT22;12052;53.478;10.182;2023-11-19T04:07:12;5.60;99.90
23744;DHT22;12052;53.478;10.182;2023-11-19T04:09:37;5.70;99.90
23744;DHT22;12052;53.478;10.182;2023-11-19T04:12:03;5.70;99.90
23744;DHT22;12052;53.478;10.182;2023-11-19T04:14:29;5.70;99.90
23744;DHT22;12052;53.478;10.182;2023-11-19T04:16:55;5.70;99.90
23744;DHT22;12052;53.478;10.182;2023-11-19T04:19:20;5.70;99.90
23744;DHT22;12052;53.478;10.182;2023-11-19T04:21:46;5.80;99.90
23744;DHT22;12052;53.478;10.182;2023-11-19T04:24:12;5.80;99.90
23744;DHT22;12052;53.478;10.182;2023-11-19T04:26:45;5.80;99.90
23744;DHT22;12052;53.478;10.182;2023-11-19T04:29:12;5.80;99.90
23744;DHT22;12052;53.478;10.182;2023-11-19T04:31:38;5.90;99.90
23744;DHT22;12052;53.478;10.182;2023-11-19T04:34:05;5.90;99.90
23744;DHT22;12052;53.478;10.182;2023-11-19T04:36:32;5.90;99.90
23744;DHT22;12052;53.478;10.182;2023-11-19T04:38:58;5.90;99.90
23744;DHT22;12052;53.478;10.182;2023-11-19T04:41:25;5.90;99.90
23744;DHT22;12052;53.478;10.182;2023-11-19T04:43:50;6.00;99.90
23744;DHT22;12052;53.478;10.182;2023-11-19T04:46:16;6.00;99.90
23744;DHT22;12052;53.478;10.182;2023-11-19T04:48:42;6.00;99.90
23744;DHT22;12052;53.478;10.182;2023-11-19T04:51:07;6.10;99.90
23744;DHT22;12052;53.478;10.182;2023-11-19T04:53:34;6.10;99.90
23744;DHT22;12052;53.478;10.182;2023-11-19T04:56:00;6.10;99.90
23744;DHT22;12052;53.478;10.182;2023-11-19T04:58:29;6.10;99.90
23744;DHT22;12052;53.478;10.182;2023-11-19T05:00:54;6.20;99.90
23744;DHT22;12052;53.478;10.182;2023-11-19T05:03:20;6.20;99.90
23744;DHT22;12052;53.478;10.182;2023-11-19T05:05:45;6.20;99.90
23744;DHT22;12052;53.478;10.182;2023-11-19T05:08:11;6.30;99.90
23744;DHT22;12052;53.478;10.182;2023-11-19T05:10:37;6.30;99.90
23744;DHT22;12052;53.478;10.182;2023-11-19T05:13:02;6.40;99.90
23744;DHT22;12052;53.478;10.182;2023-11-19T05:15:28;6.40;99.90
23744;DHT22;12052;53.478;10.182;2023-11-19T05:17:53;6.40;99.90
23744;DHT22;12052;53.478;10.182;2023-11-19T05:20:19;6.50;99.90
23744;DHT22;12052;53.478;10.182;2023-11-19T05:22:46;6.50;99.90
23744;DHT22;12052;53.478;10.182;2023-11-19T05:25:11;6.50;99.90
23744;DHT22;12052;53.478;10.182;2023-11-19T05:27:37;6.50;99.90
23744;DHT22;12052;53.478;10.182;2023-11-19T05:30:06;6.50;99.90
23744;DHT22;12052;53.478;10.182;2023-11-19T05:32:36;6.50;99.90
23744;DHT22;12052;53.478;10.182;2023-11-19T05:35:01;6.50;99.90
23744;DHT22;12052;53.478;10.182;2023-11-19T05:37:27;6.60;99.90
23744;DHT22;12052;53.478;10.182;2023-11-19T05:39:53;6.60;99.90
23744;DHT22;12052;53.478;10.182;2023-11-19T05:42:18;6.60;99.90
23744;DHT22;12052;53.478;10.182;2023-11-19T05:44:44;6.60;99.90
23744;DHT22;12052;53.478;10.182;2023-11-19T05:47:09;6.60;99.90
23744;DHT22;12052;53.478;10.182;2023-11-19T05:49:35;6.70;99.90
23744;DHT22;12052;53.478;10.182;2023-11-19T05:52:01;6.70;99.90
23744;DHT22;12052;53.478;10.182;2023-11-19T05:54:28;6.70;99.90
23744;DHT22;12052;53.478;10.182;2023-11-19T05:56:54;6.70;99.90
23744;DHT22;12052;53.478;10.182;2023-11-19T05:59:20;6.80;99.90
23744;DHT22;12052;53.478;10.182;2023-11-19T06:01:48;6.80;99.90
23744;DHT22;12052;53.478;10.182;2023-11-19T06:04:13;6.80;99.90
23744;DHT22;12052;53.478;10.182;2023-11-19T06:06:39;6.80;99.90
23744;DHT22;12052;53.478;10.182;2023-11-19T06:09:05;6.90;99.90
23744;DHT22;12052;53.478;10.182;2023-11-19T06:11:35;7.00;99.90
23744;DHT22;12052;53.478;10.182;2023-11-19T06:14:01;7.10;99.90
23744;DHT22;12052;53.478;10.182;2023-11-19T06:16:27;7.10;99.90
23744;DHT22;12052;53.478;10.182;2023-11-19T06:18:53;7.10;99.90
23744;DHT22;12052;53.478;10.182;2023-11-19T06:21:19;7.20;99.90
23744;DHT22;12052;53.478;10.182;2023-11-19T06:23:44;7.20;99.90
23744;DHT22;12052;53.478;10.182;2023-11-19T06:26:10;7.20;99.90
23744;DHT22;12052;53.478;10.182;2023-11-19T06:28:35;7.30;99.90
23744;DHT22;12052;53.478;10.182;2023-11-19T06:31:01;7.50;99.90
23744;DHT22;12052;53.478;10.182;2023-11-19T06:33:28;7.70;99.90
23744;DHT22;12052;53.478;10.182;2023-11-19T06:35:54;7.80;99.90
23744;DHT22;12052;53.478;10.182;2023-11-19T06:38:20;8.10;99.90
23744;DHT22;12052;53.478;10.182;2023-11-19T06:40:45;8.30;99.90
23744;DHT22;12052;53.478;10.182;2023-11-19T06:43:11;8.50;99.90
23744;DHT22;12052;53.478;10.182;2023-11-19T06:45:36;8.90;99.90
23744;DHT22;12052;53.478;10.182;2023-11-19T06:48:03;9.10;99.90
23744;DHT22;12052;53.478;10.182;2023-11-19T06:50:29;9.10;99.90
23744;DHT22;12052;53.478;10.182;2023-11-19T06:52:55;9.30;99.90
23744;DHT22;12052;53.478;10.182;2023-11-19T06:55:20;9.50;99.90
23744;DHT22;12052;53.478;10.182;2023-11-19T06:57:46;9.60;99.90
23744;DHT22;12052;53.478;10.182;2023-11-19T07:00:12;9.70;99.90
23744;DHT22;12052;53.478;10.182;2023-11-19T07:02:37;9.80;99.90
23744;DHT22;12052;53.478;10.182;2023-11-19T07:05:03;9.80;99.90
23744;DHT22;12052;53.478;10.182;2023-11-19T07:07:33;9.90;99.90
23744;DHT22;12052;53.478;10.182;2023-11-19T07:09:59;9.90;99.90
23744;DHT22;12052;53.478;10.182;2023-11-19T07:12:25;10.00;99.90
23744;DHT22;12052;53.478;10.182;2023-11-19T07:14:52;10.00;99.90
23744;DHT22;12052;53.478;10.182;2023-11-19T07:17:18;10.00;99.90
23744;DHT22;12052;53.478;10.182;2023-11-19T07:19:45;10.00;99.90
23744;DHT22;12052;53.478;10.182;2023-11-19T07:22:11;10.10;99.90
23744;DHT22;12052;53.478;10.182;2023-11-19T07:24:39;10.10;99.90
23744;DHT22;12052;53.478;10.182;2023-11-19T07:27:04;10.20;99.90
23744;DHT22;12052;53.478;10.182;2023-11-19T07:29:30;10.20;99.90
23744;DHT22;12052;53.478;10.182;2023-11-19T07:31:57;10.20;99.90
23744;DHT22;12052;53.478;10.182;2023-11-19T07:34:22;10.30;99.90
23744;DHT22;12052;53.478;10.182;2023-11-19T07:36:48;10.20;99.90
23744;DHT22;12052;53.478;10.182;2023-11-19T07:39:14;10.20;99.90
23744;DHT22;12052;53.478;10.182;2023-11-19T07:41:40;10.30;99.90
23744;DHT22;12052;53.478;10.182;2023-11-19T07:44:05;10.30;99.90
23744;DHT22;12052;53.478;10.182;2023-11-19T07:46:32;10.40;99.90
23744;DHT22;12052;53.478;10.182;2023-11-19T07:48:58;10.40;99.90
23744;DHT22;12052;53.478;10.182;2023-11-19T07:51:23;10.30;99.90
23744;DHT22;12052;53.478;10.182;2023-11-19T07:53:49;10.40;99.90
23744;DHT22;12052;53.478;10.182;2023-11-19T07:56:15;10.40;99.90
23744;DHT22;12052;53.478;10.182;2023-11-19T07:58:40;10.40;99.90
23744;DHT22;12052;53.478;10.182;2023-11-19T08:01:07;10.40;99.90
23744;DHT22;12052;53.478;10.182;2023-11-19T08:03:32;10.60;99.90
23744;DHT22;12052;53.478;10.182;2023-11-19T08:06:01;10.60;99.90
23744;DHT22;12052;53.478;10.182;2023-11-19T08:08:27;10.60;99.90
23744;DHT22;12052;53.478;10.182;2023-11-19T08:10:55;10.60;99.90
23744;DHT22;12052;53.478;10.182;2023-11-19T08:13:23;10.70;99.90
23744;DHT22;12052;53.478;10.182;2023-11-19T08:15:48;10.70;99.90
23744;DHT22;12052;53.478;10.182;2023-11-19T08:18:14;10.70;99.90
23744;DHT22;12052;53.478;10.182;2023-11-19T08:20:39;10.70;99.90
23744;DHT22;12052;53.478;10.182;2023-11-19T08:23:06;10.70;99.90
23744;DHT22;12052;53.478;10.182;2023-11-19T08:25:33;10.70;99.90
23744;DHT22;12052;53.478;10.182;2023-11-19T08:27:59;10.70;99.90
23744;DHT22;12052;53.478;10.182;2023-11-19T08:30:25;10.70;99.90
23744;DHT22;12052;53.478;10.182;2023-11-19T08:32:51;10.70;99.90
23744;DHT22;12052;53.478;10.182;2023-11-19T08:35:16;10.70;99.90
23744;DHT22;12052;53.478;10.182;2023-11-19T08:37:42;10.70;99.90
23744;DHT22;12052;53.478;10.182;2023-11-19T08:40:09;10.70;99.90
23744;DHT22;12052;53.478;10.182;2023-11-19T08:42:35;10.70;99.90
23744;DHT22;12052;53.478;10.182;2023-11-19T08:45:00;10.70;99.90
23744;DHT22;12052;53.478;10.182;2023-11-19T08:47:26;10.80;99.90
23744;DHT22;12052;53.478;10.182;2023-11-19T08:49:52;10.80;99.90
23744;DHT22;12052;53.478;10.182;2023-11-19T08:52:18;10.80;99.90
23744;DHT22;12052;53.478;10.182;2023-11-19T08:54:43;10.80;99.90
23744;DHT22;12052;53.478;10.182;2023-11-19T08:57:09;10.80;99.90
23744;DHT22;12052;53.478;10.182;2023-11-19T08:59:35;10.80;99.90
23744;DHT22;12052;53.478;10.182;2023-11-19T09:02:03;10.90;99.90
23744;DHT22;12052;53.478;10.182;2023-11-19T09:04:29;10.90;99.90
23744;DHT22;12052;53.478;10.182;2023-11-19T09:06:54;11.10;99.90
23744;DHT22;12052;53.478;10.182;2023-11-19T09:09:21;11.10;99.90
23744;DHT22;12052;53.478;10.182;2023-11-19T09:11:46;11.20;99.90
23744;DHT22;12052;53.478;10.182;2023-11-19T09:14:12;11.20;99.90
23744;DHT22;12052;53.478;10.182;2023-11-19T09:16:37;11.20;99.90
23744;DHT22;12052;53.478;10.182;2023-11-19T09:19:03;11.30;99.90
23744;DHT22;12052;53.478;10.182;2023-11-19T09:21:29;11.20;99.90
23744;DHT22;12052;53.478;10.182;2023-11-19T09:23:57;11.20;99.90
23744;DHT22;12052;53.478;10.182;2023-11-19T09:26:23;11.10;99.90
23744;DHT22;12052;53.478;10.182;2023-11-19T09:28:48;11.20;99.90
23744;DHT22;12052;53.478;10.182;2023-11-19T09:31:15;11.00;99.90
23744;DHT22;12052;53.478;10.182;2023-11-19T09:33:41;11.10;99.90
23744;DHT22;12052;53.478;10.182;2023-11-19T09:36:07;11.10;99.90
23744;DHT22;12052;53.478;10.182;2023-11-19T09:38:32;11.10;99.90
23744;DHT22;12052;53.478;10.182;2023-11-19T09:41:01;11.20;99.90
23744;DHT22;12052;53.478;10.182;2023-11-19T09:43:27;11.20;99.90
23744;DHT22;12052;53.478;10.182;2023-11-19T09:45:55;11.20;99.90
23744;DHT22;12052;53.478;10.182;2023-11-19T09:48:21;11.20;99.90
23744;DHT22;12052;53.478;10.182;2023-11-19T09:50:50;11.20;99.90
23744;DHT22;12052;53.478;10.182;2023-11-19T09:53:17;11.10;99.90
23744;DHT22;12052;53.478;10.182;2023-11-19T09:55:43;11.10;99.90
23744;DHT22;12052;53.478;10.182;2023-11-19T09:58:12;11.10;99.90
23744;DHT22;12052;53.478;10.182;2023-11-19T10:00:39;11.10;99.90
23744;DHT22;12052;53.478;10.182;2023-11-19T10:03:07;11.20;99.90
23744;DHT22;12052;53.478;10.182;2023-11-19T10:05:34;11.10;99.90
23744;DHT22;12052;53.478;10.182;2023-11-19T10:08:01;11.20;99.90
23744;DHT22;12052;53.478;10.182;2023-11-19T10:10:28;11.20;99.90
23744;DHT22;12052;53.478;10.182;2023-11-19T10:12:55;11.30;99.90
23744;DHT22;12052;53.478;10.182;2023-11-19T10:15:22;11.30;99.90
23744;DHT22;12052;53.478;10.182;2023-11-19T10:17:48;11.30;99.90
23744;DHT22;12052;53.478;10.182;2023-11-19T10:20:14;11.30;99.90
23744;DHT22;12052;53.478;10.182;2023-11-19T10:22:40;11.30;99.90
23744;DHT22;12052;53.478;10.182;2023-11-19T10:27:50;11.30;99.90
23744;DHT22;12052;53.478;10.182;2023-11-19T10:30:23;11.20;99.90
23744;DHT22;12052;53.478;10.182;2023-11-19T10:33:10;11.20;99.90
23744;DHT22;12052;53.478;10.182;2023-11-19T10:35:57;11.20;99.90
23744;DHT22;12052;53.478;10.182;2023-11-19T10:38:23;11.20;99.90
23744;DHT22;12052;53.478;10.182;2023-11-19T10:40:50;11.20;99.90
23744;DHT22;12052;53.478;10.182;2023-11-19T10:43:17;11.20;99.90
23744;DHT22;12052;53.478;10.182;2023-11-19T10:45:43;11.10;99.90
23744;DHT22;12052;53.478;10.182;2023-11-19T10:48:09;11.00;99.90
23744;DHT22;12052;53.478;10.182;2023-11-19T10:50:40;11.00;99.90
23744;DHT22;12052;53.478;10.182;2023-11-19T10:53:06;11.00;99.90
23744;DHT22;12052;53.478;10.182;2023-11-19T10:55:35;11.00;99.90
23744;DHT22;12052;53.478;10.182;2023-11-19T10:58:02;11.00;99.90
23744;DHT22;12052;53.478;10.182;2023-11-19T11:00:48;11.00;99.90
23744;DHT22;12052;53.478;10.182;2023-11-19T11:03:23;11.00;99.90
23744;DHT22;12052;53.478;10.182;2023-11-19T11:05:51;11.00;99.90
23744;DHT22;12052;53.478;10.182;2023-11-19T11:08:18;11.00;99.90
23744;DHT22;12052;53.478;10.182;2023-11-19T11:10:53;10.90;99.90
23744;DHT22;12052;53.478;10.182;2023-11-19T11:13:19;10.90;99.90
23744;DHT22;12052;53.478;10.182;2023-11-19T11:15:49;10.80;99.90
23744;DHT22;12052;53.478;10.182;2023-11-19T11:18:15;10.70;99.90
23744;DHT22;12052;53.478;10.182;2023-11-19T11:20:44;10.70;99.90
23744;DHT22;12052;53.478;10.182;2023-11-19T11:28:56;10.70;99.90
23744;DHT22;12052;53.478;10.182;2023-11-19T11:39:35;10.70;99.90
23744;DHT22;12052;53.478;10.182;2023-11-19T11:45:01;10.90;99.90
23744;DHT22;12052;53.478;10.182;2023-11-19T11:50:22;11.00;99.90
23744;DHT22;12052;53.478;10.182;2023-11-19T11:55:36;11.00;99.90
23744;DHT22;12052;53.478;10.182;2023-11-19T11:58:05;11.10;99.90
23744;DHT22;12052;53.478;10.182;2023-11-19T12:00:39;11.10;99.90
23744;DHT22;12052;53.478;10.182;2023-11-19T12:03:06;11.10;99.90
23744;DHT22;12052;53.478;10.182;2023-11-19T12:05:33;11.30;99.90
23744;DHT22;12052;53.478;10.182;2023-11-19T12:08:06;11.30;99.90
23744;DHT22;12052;53.478;10.182;2023-11-19T12:10:37;11.40;99.90
23744;DHT22;12052;53.478;10.182;2023-11-19T12:13:08;11.40;99.90
23744;DHT22;12052;53.478;10.182;2023-11-19T12:18:32;11.30;99.90
23744;DHT22;12052;53.478;10.182;2023-11-19T12:20:59;11.20;99.90
23744;DHT22;12052;53.478;10.182;2023-11-19T12:23:30;11.20;99.90
23744;DHT22;12052;53.478;10.182;2023-11-19T12:25:57;11.30;99.90
23744;DHT22;12052;53.478;10.182;2023-11-19T12:28:23;11.30;99.90
23744;DHT22;12052;53.478;10.182;2023-11-19T12:30:52;11.40;99.90
23744;DHT22;12052;53.478;10.182;2023-11-19T12:33:18;11.40;99.90
23744;DHT22;12052;53.478;10.182;2023-11-19T12:35:46;11.40;99.90
23744;DHT22;12052;53.478;10.182;2023-11-19T12:38:22;11.50;99.90
23744;DHT22;12052;53.478;10.182;2023-11-19T12:41:02;11.50;99.90
23744;DHT22;12052;53.478;10.182;2023-11-19T12:43:27;11.50;99.90
23744;DHT22;12052;53.478;10.182;2023-11-19T12:45:53;11.60;99.90
23744;DHT22;12052;53.478;10.182;2023-11-19T12:48:19;11.70;99.90
23744;DHT22;12052;53.478;10.182;2023-11-19T12:50:55;11.70;99.90
23744;DHT22;12052;53.478;10.182;2023-11-19T12:53:26;11.80;99.90
23744;DHT22;12052;53.478;10.182;2023-11-19T12:55:53;11.70;99.90
23744;DHT22;12052;53.478;10.182;2023-11-19T12:58:34;11.70;99.90
23744;DHT22;12052;53.478;10.182;2023-11-19T13:04:27;11.60;99.90
23744;DHT22;12052;53.478;10.182;2023-11-19T13:06:52;11.60;99.90
23744;DHT22;12052;53.478;10.182;2023-11-19T13:09:25;11.60;99.90
23744;DHT22;12052;53.478;10.182;2023-11-19T13:11:52;11.60;99.90
23744;DHT22;12052;53.478;10.182;2023-11-19T13:14:18;11.60;99.90
23744;DHT22;12052;53.478;10.182;2023-11-19T13:16:44;11.50;99.90
23744;DHT22;12052;53.478;10.182;2023-11-19T13:19:13;11.40;99.90
23744;DHT22;12052;53.478;10.182;2023-11-19T13:21:39;11.40;99.90
23744;DHT22;12052;53.478;10.182;2023-11-19T13:24:06;11.40;99.90
23744;DHT22;12052;53.478;10.182;2023-11-19T13:26:32;11.40;99.90
23744;DHT22;12052;53.478;10.182;2023-11-19T13:28:57;11.40;99.90
23744;DHT22;12052;53.478;10.182;2023-11-19T13:31:23;11.50;99.90
23744;DHT22;12052;53.478;10.182;2023-11-19T13:33:48;11.40;99.90
23744;DHT22;12052;53.478;10.182;2023-11-19T13:36:14;11.40;99.90
23744;DHT22;12052;53.478;10.182;2023-11-19T13:38:40;11.30;99.90
23744;DHT22;12052;53.478;10.182;2023-11-19T13:41:10;11.40;99.90
23744;DHT22;12052;53.478;10.182;2023-11-19T13:43:37;11.40;99.90
23744;DHT22;12052;53.478;10.182;2023-11-19T13:46:03;11.40;99.90
23744;DHT22;12052;53.478;10.182;2023-11-19T13:48:29;11.40;99.90
23744;DHT22;12052;53.478;10.182;2023-11-19T13:50:55;11.40;99.90
23744;DHT22;12052;53.478;10.182;2023-11-19T13:53:21;11.40;99.90
23744;DHT22;12052;53.478;10.182;2023-11-19T13:55:49;11.40;99.90
23744;DHT22;12052;53.478;10.182;2023-11-19T13:58:15;11.40;99.90
23744;DHT22;12052;53.478;10.182;2023-11-19T14:00:41;11.30;99.90
23744;DHT22;12052;53.478;10.182;2023-11-19T14:03:08;11.40;99.90
23744;DHT22;12052;53.478;10.182;2023-11-19T14:05:35;11.40;99.90
23744;DHT22;12052;53.478;10.182;2023-11-19T14:08:01;11.40;99.90
23744;DHT22;12052;53.478;10.182;2023-11-19T14:10:27;11.40;99.90
23744;DHT22;12052;53.478;10.182;2023-11-19T14:12:52;11.30;99.90
23744;DHT22;12052;53.478;10.182;2023-11-19T14:15:18;11.30;99.90
23744;DHT22;12052;53.478;10.182;2023-11-19T14:17:44;11.20;99.90
23744;DHT22;12052;53.478;10.182;2023-11-19T14:20:10;11.20;99.90
23744;DHT22;12052;53.478;10.182;2023-11-19T14:22:39;11.20;99.90
23744;DHT22;12052;53.478;10.182;2023-11-19T14:25:05;11.20;99.90
23744;DHT22;12052;53.478;10.182;2023-11-19T14:27:42;11.10;99.90
23744;DHT22;12052;53.478;10.182;2023-11-19T14:30:12;11.10;99.90
23744;DHT22;12052;53.478;10.182;2023-11-19T14:32:39;11.10;99.90
23744;DHT22;12052;53.478;10.182;2023-11-19T14:35:06;10.90;99.90
23744;DHT22;12052;53.478;10.182;2023-11-19T14:37:32;10.90;99.90
23744;DHT22;12052;53.478;10.182;2023-11-19T14:39:58;10.90;99.90
23744;DHT22;12052;53.478;10.182;2023-11-19T14:42:26;10.90;99.90
23744;DHT22;12052;53.478;10.182;2023-11-19T14:44:53;10.80;99.90
23744;DHT22;12052;53.478;10.182;2023-11-19T14:47:19;10.80;99.90
23744;DHT22;12052;53.478;10.182;2023-11-19T14:49:47;10.80;99.90
23744;DHT22;12052;53.478;10.182;2023-11-19T14:52:13;10.80;99.90
23744;DHT22;12052;53.478;10.182;2023-11-19T14:54:39;10.80;99.90
23744;DHT22;12052;53.478;10.182;2023-11-19T14:57:05;10.90;99.90
23744;DHT22;12052;53.478;10.182;2023-11-19T14:59:33;10.90;99.90
23744;DHT22;12052;53.478;10.182;2023-11-19T15:01:59;10.80;99.90
23744;DHT22;12052;53.478;10.182;2023-11-19T15:04:26;10.80;99.90
23744;DHT22;12052;53.478;10.182;2023-11-19T15:06:52;10.80;99.90
23744;DHT22;12052;53.478;10.182;2023-11-19T15:09:17;10.80;99.90
23744;DHT22;12052;53.478;10.182;2023-11-19T15:11:44;10.80;99.90
23744;DHT22;12052;53.478;10.182;2023-11-19T15:14:15;10.70;99.90
23744;DHT22;12052;53.478;10.182;2023-11-19T15:16:42;10.70;99.90
23744;DHT22;12052;53.478;10.182;2023-11-19T15:19:08;10.60;99.90
23744;DHT22;12052;53.478;10.182;2023-11-19T15:21:34;10.60;99.90
23744;DHT22;12052;53.478;10.182;2023-11-19T15:24:00;10.60;99.90
23744;DHT22;12052;53.478;10.182;2023-11-19T15:26:27;10.60;99.90
23744;DHT22;12052;53.478;10.182;2023-11-19T15:28:53;10.60;99.90
23744;DHT22;12052;53.478;10.182;2023-11-19T15:31:22;10.60;99.90
23744;DHT22;12052;53.478;10.182;2023-11-19T15:33:48;10.60;99.90
23744;DHT22;12052;53.478;10.182;2023-11-19T15:36:13;10.60;99.90
23744;DHT22;12052;53.478;10.182;2023-11-19T15:38:40;10.60;99.90
23744;DHT22;12052;53.478;10.182;2023-11-19T15:41:05;10.60;99.90
23744;DHT22;12052;53.478;10.182;2023-11-19T15:43:33;10.60;99.90
23744;DHT22;12052;53.478;10.182;2023-11-19T15:45:58;10.50;99.90
23744;DHT22;12052;53.478;10.182;2023-11-19T15:48:24;10.50;99.90
23744;DHT22;12052;53.478;10.182;2023-11-19T15:50:51;10.50;99.90